Swift Ace — C6XB8 — position and weather

sailwx.info

Track history (hours):
 
Tides and Currents Weather Stations Pressure Air Temp Water Temp Dewpoint Dewpoint Depression Visibility Wind Speed Wind Dir Waves Ship Positions

Swift Ace

Last reported at 2015-Jul-03 02:25 UTC. Time now 2015-Jul-03 02:36 UTC.
Position N 01°16' E 103°53'.

Length 200 m; draft 8.4 m.

Type: Cargo ship. MMSI: 311004900.

Date/timePositionNaut miles runAvg speedWind from/ knotsBaromVisibWave heightAir tempDewpointWater temp
2015-Jul-03 02:25N 01°16' E 103°53'0 0.0
2015-Jul-03 01:28N 01°16' E 103°53'0 0.0
2015-Jul-03 00:28N 01°16' E 103°53'0 0.0
2015-Jul-02 23:31N 01°16' E 103°53'0 0.0
2015-Jul-02 22:26N 01°16' E 103°53'2 2.7
2015-Jul-02 21:33N 01°14' E 103°55'1313.3
2015-Jul-02 20:33N 01°16' E 104°08'  
2015-Jun-26 07:08N 01°16' E 104°14'1018.0
2015-Jun-26 06:34N 01°15' E 104°03'9 8.9
2015-Jun-26 05:33N 01°15' E 103°54'1 0.5
2015-Jun-26 04:26N 01°16' E 103°54'0 0.0
2015-Jun-26 03:32N 01°16' E 103°54'0 0.0
2015-Jun-26 02:26N 01°16' E 103°54'0 0.1
2015-Jun-26 01:32N 01°16' E 103°54'0 0.0
2015-Jun-26 00:20N 01°16' E 103°54'0 0.1
2015-Jun-25 23:29N 01°16' E 103°54'0 0.1
2015-Jun-25 22:23N 01°16' E 103°54'1 1.0
2015-Jun-25 21:33N 01°15' E 103°54'8 7.7
2015-Jun-25 20:33N 01°15' E 103°46'2 1.8
2015-Jun-25 19:27N 01°17' E 103°45'0 0.0
2015-Jun-25 18:33N 01°17' E 103°45'0 0.0
2015-Jun-25 17:33N 01°17' E 103°45'0 0.0
2015-Jun-25 16:33N 01°17' E 103°45'0 0.0
2015-Jun-25 15:30N 01°17' E 103°45'0 0.0
2015-Jun-25 14:30N 01°17' E 103°45'1 0.7
2015-Jun-25 13:33N 01°17' E 103°45'9 8.9
2015-Jun-25 12:33N 01°14' E 103°53'8 8.3
2015-Jun-25 11:33N 01°16' E 104°01'10 9.7
2015-Jun-25 10:33N 01°17' E 104°11'  
Track history (hours):
 
Tides and Currents Weather Stations Pressure Air Temp Water Temp Dewpoint Dewpoint Depression Visibility Wind Speed Wind Dir Waves Ship Positions

Swift Ace

Last reported at 2015-Jul-03 02:25 UTC. Time now 2015-Jul-03 02:36 UTC.
Position N 01°16' E 103°53'.

Length 200 m; draft 8.4 m.

Type: Cargo ship. MMSI: 311004900.

Date/timePositionNaut miles runAvg speedWind from/ knotsBaromVisibWave heightAir tempDewpointWater temp
2015-Jul-03 02:25N 01°16' E 103°53'0 0.0
2015-Jul-03 01:28N 01°16' E 103°53'0 0.0
2015-Jul-03 00:28N 01°16' E 103°53'0 0.0
2015-Jul-02 23:31N 01°16' E 103°53'0 0.0
2015-Jul-02 22:26N 01°16' E 103°53'2 2.7
2015-Jul-02 21:33N 01°14' E 103°55'1313.3
2015-Jul-02 20:33N 01°16' E 104°08'  
2015-Jun-26 07:08N 01°16' E 104°14'1018.0
2015-Jun-26 06:34N 01°15' E 104°03'9 8.9
2015-Jun-26 05:33N 01°15' E 103°54'1 0.5
2015-Jun-26 04:26N 01°16' E 103°54'0 0.0
2015-Jun-26 03:32N 01°16' E 103°54'0 0.0
2015-Jun-26 02:26N 01°16' E 103°54'0 0.1
2015-Jun-26 01:32N 01°16' E 103°54'0 0.0
2015-Jun-26 00:20N 01°16' E 103°54'0 0.1
2015-Jun-25 23:29N 01°16' E 103°54'0 0.1
2015-Jun-25 22:23N 01°16' E 103°54'1 1.0
2015-Jun-25 21:33N 01°15' E 103°54'8 7.7
2015-Jun-25 20:33N 01°15' E 103°46'2 1.8
2015-Jun-25 19:27N 01°17' E 103°45'0 0.0
2015-Jun-25 18:33N 01°17' E 103°45'0 0.0
2015-Jun-25 17:33N 01°17' E 103°45'0 0.0
2015-Jun-25 16:33N 01°17' E 103°45'0 0.0
2015-Jun-25 15:30N 01°17' E 103°45'0 0.0
2015-Jun-25 14:30N 01°17' E 103°45'1 0.7
2015-Jun-25 13:33N 01°17' E 103°45'9 8.9
2015-Jun-25 12:33N 01°14' E 103°53'8 8.3
2015-Jun-25 11:33N 01°16' E 104°01'10 9.7
2015-Jun-25 10:33N 01°17' E 104°11'  

Dump ship's entire track history